sensor_id;sensor_type;location;lat;lon;timestamp;P1;durP1;ratioP1;P2;durP2;ratioP2
62673;SDS011;62269;47.594;17.638;2022-12-29T00:00:44;8.48;;;6.12;;
62673;SDS011;62269;47.594;17.638;2022-12-29T00:01:31;7.35;;;6.53;;
62673;SDS011;62269;47.594;17.638;2022-12-29T00:02:18;8.35;;;6.72;;
62673;SDS011;62269;47.594;17.638;2022-12-29T00:03:05;8.18;;;6.80;;
62673;SDS011;62269;47.594;17.638;2022-12-29T00:03:52;8.82;;;6.68;;
62673;SDS011;62269;47.594;17.638;2022-12-29T00:04:39;8.43;;;6.78;;
62673;SDS011;62269;47.594;17.638;2022-12-29T00:05:26;9.75;;;7.25;;
62673;SDS011;62269;47.594;17.638;2022-12-29T00:06:13;8.50;;;6.37;;
62673;SDS011;62269;47.594;17.638;2022-12-29T00:07:00;8.77;;;6.60;;
62673;SDS011;62269;47.594;17.638;2022-12-29T00:07:47;8.27;;;6.25;;
62673;SDS011;62269;47.594;17.638;2022-12-29T00:08:34;9.52;;;7.30;;
62673;SDS011;62269;47.594;17.638;2022-12-29T00:09:27;8.13;;;6.57;;
62673;SDS011;62269;47.594;17.638;2022-12-29T00:10:14;8.70;;;6.65;;
62673;SDS011;62269;47.594;17.638;2022-12-29T00:11:00;9.20;;;6.57;;
62673;SDS011;62269;47.594;17.638;2022-12-29T00:11:47;8.38;;;6.43;;
62673;SDS011;62269;47.594;17.638;2022-12-29T00:12:36;8.18;;;6.50;;
62673;SDS011;62269;47.594;17.638;2022-12-29T00:13:42;8.00;;;5.95;;
62673;SDS011;62269;47.594;17.638;2022-12-29T00:14:48;8.15;;;6.28;;
62673;SDS011;62269;47.594;17.638;2022-12-29T00:15:55;11.38;;;8.07;;
62673;SDS011;62269;47.594;17.638;2022-12-29T00:16:42;9.05;;;6.55;;
62673;SDS011;62269;47.594;17.638;2022-12-29T00:17:30;8.98;;;6.60;;
62673;SDS011;62269;47.594;17.638;2022-12-29T00:18:17;8.38;;;6.60;;
62673;SDS011;62269;47.594;17.638;2022-12-29T00:19:04;9.10;;;6.70;;
62673;SDS011;62269;47.594;17.638;2022-12-29T00:19:52;8.55;;;6.87;;
62673;SDS011;62269;47.594;17.638;2022-12-29T00:20:59;10.73;;;7.00;;
62673;SDS011;62269;47.594;17.638;2022-12-29T00:22:04;9.77;;;6.80;;
62673;SDS011;62269;47.594;17.638;2022-12-29T00:23:10;9.00;;;6.28;;
62673;SDS011;62269;47.594;17.638;2022-12-29T00:24:16;10.50;;;6.93;;
62673;SDS011;62269;47.594;17.638;2022-12-29T00:25:13;7.78;;;6.55;;
62673;SDS011;62269;47.594;17.638;2022-12-29T00:26:19;8.02;;;6.37;;
62673;SDS011;62269;47.594;17.638;2022-12-29T00:27:26;9.15;;;6.90;;
62673;SDS011;62269;47.594;17.638;2022-12-29T00:28:34;8.27;;;6.47;;
62673;SDS011;62269;47.594;17.638;2022-12-29T00:29:40;8.90;;;6.47;;
62673;SDS011;62269;47.594;17.638;2022-12-29T00:30:45;9.38;;;6.95;;
62673;SDS011;62269;47.594;17.638;2022-12-29T00:31:51;10.02;;;6.90;;
62673;SDS011;62269;47.594;17.638;2022-12-29T00:32:57;8.75;;;6.68;;
62673;SDS011;62269;47.594;17.638;2022-12-29T00:34:03;10.10;;;7.12;;
62673;SDS011;62269;47.594;17.638;2022-12-29T00:35:10;9.95;;;6.90;;
62673;SDS011;62269;47.594;17.638;2022-12-29T00:36:50;9.05;;;7.00;;
62673;SDS011;62269;47.594;17.638;2022-12-29T00:37:40;8.82;;;6.95;;
62673;SDS011;62269;47.594;17.638;2022-12-29T00:38:49;10.38;;;6.97;;
62673;SDS011;62269;47.594;17.638;2022-12-29T00:39:57;14.43;;;6.97;;
62673;SDS011;62269;47.594;17.638;2022-12-29T00:41:03;9.15;;;6.95;;
62673;SDS011;62269;47.594;17.638;2022-12-29T00:42:22;8.35;;;6.50;;
62673;SDS011;62269;47.594;17.638;2022-12-29T00:43:27;8.18;;;7.12;;
62673;SDS011;62269;47.594;17.638;2022-12-29T00:44:33;8.35;;;6.50;;
62673;SDS011;62269;47.594;17.638;2022-12-29T00:45:20;11.95;;;7.15;;
62673;SDS011;62269;47.594;17.638;2022-12-29T00:46:07;8.68;;;6.57;;
62673;SDS011;62269;47.594;17.638;2022-12-29T00:46:59;9.45;;;6.97;;
62673;SDS011;62269;47.594;17.638;2022-12-29T00:47:49;10.70;;;7.72;;
62673;SDS011;62269;47.594;17.638;2022-12-29T00:48:36;9.98;;;7.40;;
62673;SDS011;62269;47.594;17.638;2022-12-29T00:49:41;8.05;;;6.78;;
62673;SDS011;62269;47.594;17.638;2022-12-29T00:50:28;8.07;;;6.47;;
62673;SDS011;62269;47.594;17.638;2022-12-29T00:51:15;10.35;;;7.37;;
62673;SDS011;62269;47.594;17.638;2022-12-29T00:52:04;9.45;;;7.32;;
62673;SDS011;62269;47.594;17.638;2022-12-29T00:52:55;8.38;;;6.90;;
62673;SDS011;62269;47.594;17.638;2022-12-29T00:53:42;9.07;;;7.32;;
62673;SDS011;62269;47.594;17.638;2022-12-29T00:54:30;9.40;;;7.80;;
62673;SDS011;62269;47.594;17.638;2022-12-29T00:55:18;9.60;;;6.97;;
62673;SDS011;62269;47.594;17.638;2022-12-29T00:56:05;9.30;;;6.82;;
62673;SDS011;62269;47.594;17.638;2022-12-29T00:56:52;9.27;;;7.00;;
62673;SDS011;62269;47.594;17.638;2022-12-29T00:57:39;8.40;;;6.60;;
62673;SDS011;62269;47.594;17.638;2022-12-29T00:58:30;10.00;;;6.87;;
62673;SDS011;62269;47.594;17.638;2022-12-29T00:59:17;10.95;;;7.15;;
62673;SDS011;62269;47.594;17.638;2022-12-29T01:00:04;8.38;;;6.80;;
62673;SDS011;62269;47.594;17.638;2022-12-29T01:00:52;8.63;;;6.70;;
62673;SDS011;62269;47.594;17.638;2022-12-29T01:01:39;9.60;;;6.87;;
62673;SDS011;62269;47.594;17.638;2022-12-29T01:02:26;9.00;;;6.93;;
62673;SDS011;62269;47.594;17.638;2022-12-29T01:03:15;10.60;;;7.53;;
62673;SDS011;62269;47.594;17.638;2022-12-29T01:04:02;9.23;;;7.22;;
62673;SDS011;62269;47.594;17.638;2022-12-29T01:04:50;10.23;;;7.07;;
62673;SDS011;62269;47.594;17.638;2022-12-29T01:05:37;9.52;;;7.45;;
62673;SDS011;62269;47.594;17.638;2022-12-29T01:06:24;9.50;;;8.07;;
62673;SDS011;62269;47.594;17.638;2022-12-29T01:07:11;9.07;;;6.80;;
62673;SDS011;62269;47.594;17.638;2022-12-29T01:07:57;12.23;;;7.40;;
62673;SDS011;62269;47.594;17.638;2022-12-29T01:08:44;10.52;;;7.03;;
62673;SDS011;62269;47.594;17.638;2022-12-29T01:09:31;9.70;;;7.03;;
62673;SDS011;62269;47.594;17.638;2022-12-29T01:10:37;11.02;;;8.05;;
62673;SDS011;62269;47.594;17.638;2022-12-29T01:11:23;9.45;;;7.62;;
62673;SDS011;62269;47.594;17.638;2022-12-29T01:12:10;12.30;;;7.78;;
62673;SDS011;62269;47.594;17.638;2022-12-29T01:12:58;11.18;;;7.32;;
62673;SDS011;62269;47.594;17.638;2022-12-29T01:13:44;9.38;;;7.60;;
62673;SDS011;62269;47.594;17.638;2022-12-29T01:14:31;8.90;;;7.55;;
62673;SDS011;62269;47.594;17.638;2022-12-29T01:15:19;9.70;;;7.20;;
62673;SDS011;62269;47.594;17.638;2022-12-29T01:16:06;11.57;;;7.72;;
62673;SDS011;62269;47.594;17.638;2022-12-29T01:16:54;9.50;;;7.47;;
62673;SDS011;62269;47.594;17.638;2022-12-29T01:17:41;8.38;;;7.47;;
62673;SDS011;62269;47.594;17.638;2022-12-29T01:18:28;9.43;;;7.15;;
62673;SDS011;62269;47.594;17.638;2022-12-29T01:19:15;11.23;;;7.90;;
62673;SDS011;62269;47.594;17.638;2022-12-29T01:20:03;11.18;;;7.15;;
62673;SDS011;62269;47.594;17.638;2022-12-29T01:20:58;9.13;;;7.43;;
62673;SDS011;62269;47.594;17.638;2022-12-29T01:21:52;9.30;;;7.37;;
62673;SDS011;62269;47.594;17.638;2022-12-29T01:22:39;10.20;;;8.70;;
62673;SDS011;62269;47.594;17.638;2022-12-29T01:23:26;9.05;;;7.47;;
62673;SDS011;62269;47.594;17.638;2022-12-29T01:24:13;12.45;;;7.87;;
62673;SDS011;62269;47.594;17.638;2022-12-29T01:25:02;11.82;;;7.78;;
62673;SDS011;62269;47.594;17.638;2022-12-29T01:25:49;10.40;;;7.47;;
62673;SDS011;62269;47.594;17.638;2022-12-29T01:26:36;9.45;;;7.95;;
62673;SDS011;62269;47.594;17.638;2022-12-29T01:27:23;9.23;;;7.57;;
62673;SDS011;62269;47.594;17.638;2022-12-29T01:28:10;10.35;;;7.80;;
62673;SDS011;62269;47.594;17.638;2022-12-29T01:28:57;10.73;;;7.82;;
62673;SDS011;62269;47.594;17.638;2022-12-29T01:29:44;16.12;;;8.07;;
62673;SDS011;62269;47.594;17.638;2022-12-29T01:30:31;8.75;;;7.75;;
62673;SDS011;62269;47.594;17.638;2022-12-29T01:31:19;12.10;;;7.43;;
62673;SDS011;62269;47.594;17.638;2022-12-29T01:32:06;8.48;;;7.28;;
62673;SDS011;62269;47.594;17.638;2022-12-29T01:32:53;11.48;;;7.97;;
62673;SDS011;62269;47.594;17.638;2022-12-29T01:33:40;13.20;;;8.00;;
62673;SDS011;62269;47.594;17.638;2022-12-29T01:34:27;8.68;;;7.43;;
62673;SDS011;62269;47.594;17.638;2022-12-29T01:35:14;10.63;;;7.20;;
62673;SDS011;62269;47.594;17.638;2022-12-29T01:36:03;9.80;;;7.68;;
62673;SDS011;62269;47.594;17.638;2022-12-29T01:36:52;9.88;;;7.55;;
62673;SDS011;62269;47.594;17.638;2022-12-29T01:37:39;11.27;;;8.07;;
62673;SDS011;62269;47.594;17.638;2022-12-29T01:38:26;10.48;;;8.02;;
62673;SDS011;62269;47.594;17.638;2022-12-29T01:39:13;11.27;;;8.05;;
62673;SDS011;62269;47.594;17.638;2022-12-29T01:39:59;11.35;;;7.87;;
62673;SDS011;62269;47.594;17.638;2022-12-29T01:40:47;10.13;;;7.60;;
62673;SDS011;62269;47.594;17.638;2022-12-29T01:41:34;11.55;;;8.18;;
62673;SDS011;62269;47.594;17.638;2022-12-29T01:42:22;10.13;;;7.80;;
62673;SDS011;62269;47.594;17.638;2022-12-29T01:43:11;11.88;;;9.30;;
62673;SDS011;62269;47.594;17.638;2022-12-29T01:43:59;11.35;;;7.97;;
62673;SDS011;62269;47.594;17.638;2022-12-29T01:44:58;11.63;;;8.40;;
62673;SDS011;62269;47.594;17.638;2022-12-29T01:45:50;11.30;;;8.20;;
62673;SDS011;62269;47.594;17.638;2022-12-29T01:47:36;11.55;;;7.90;;
62673;SDS011;62269;47.594;17.638;2022-12-29T01:48:26;11.00;;;7.85;;
62673;SDS011;62269;47.594;17.638;2022-12-29T01:49:17;9.35;;;7.82;;
62673;SDS011;62269;47.594;17.638;2022-12-29T01:50:12;10.50;;;8.52;;
62673;SDS011;62269;47.594;17.638;2022-12-29T01:51:11;8.95;;;7.55;;
62673;SDS011;62269;47.594;17.638;2022-12-29T01:52:00;10.07;;;8.13;;
62673;SDS011;62269;47.594;17.638;2022-12-29T01:52:51;9.52;;;7.65;;
62673;SDS011;62269;47.594;17.638;2022-12-29T01:53:54;12.27;;;7.62;;
62673;SDS011;62269;47.594;17.638;2022-12-29T01:54:46;10.02;;;8.35;;
62673;SDS011;62269;47.594;17.638;2022-12-29T01:55:41;10.43;;;7.97;;
62673;SDS011;62269;47.594;17.638;2022-12-29T01:56:58;10.93;;;7.80;;
62673;SDS011;62269;47.594;17.638;2022-12-29T01:57:48;11.73;;;8.10;;
62673;SDS011;62269;47.594;17.638;2022-12-29T01:58:38;11.45;;;8.23;;
62673;SDS011;62269;47.594;17.638;2022-12-29T01:59:28;11.10;;;8.50;;
62673;SDS011;62269;47.594;17.638;2022-12-29T02:00:18;11.07;;;8.55;;
62673;SDS011;62269;47.594;17.638;2022-12-29T02:01:05;11.05;;;8.65;;
62673;SDS011;62269;47.594;17.638;2022-12-29T02:01:52;11.10;;;8.70;;
62673;SDS011;62269;47.594;17.638;2022-12-29T02:02:41;9.60;;;8.27;;
62673;SDS011;62269;47.594;17.638;2022-12-29T02:04:18;10.20;;;7.50;;
62673;SDS011;62269;47.594;17.638;2022-12-29T02:05:14;10.98;;;8.13;;
62673;SDS011;62269;47.594;17.638;2022-12-29T02:07:10;10.70;;;7.87;;
62673;SDS011;62269;47.594;17.638;2022-12-29T02:08:02;11.70;;;8.68;;
62673;SDS011;62269;47.594;17.638;2022-12-29T02:08:50;10.60;;;8.40;;
62673;SDS011;62269;47.594;17.638;2022-12-29T02:09:39;11.73;;;8.73;;
62673;SDS011;62269;47.594;17.638;2022-12-29T02:10:27;12.20;;;9.23;;
62673;SDS011;62269;47.594;17.638;2022-12-29T02:11:17;9.43;;;7.87;;
62673;SDS011;62269;47.594;17.638;2022-12-29T02:12:03;11.52;;;8.75;;
62673;SDS011;62269;47.594;17.638;2022-12-29T02:12:51;10.75;;;8.27;;
62673;SDS011;62269;47.594;17.638;2022-12-29T02:13:38;9.85;;;8.20;;
62673;SDS011;62269;47.594;17.638;2022-12-29T02:14:25;10.93;;;8.43;;
62673;SDS011;62269;47.594;17.638;2022-12-29T02:15:12;11.73;;;8.10;;
62673;SDS011;62269;47.594;17.638;2022-12-29T02:17:11;12.25;;;8.38;;
62673;SDS011;62269;47.594;17.638;2022-12-29T02:19:30;10.95;;;8.70;;
62673;SDS011;62269;47.594;17.638;2022-12-29T02:20:43;9.60;;;7.72;;
62673;SDS011;62269;47.594;17.638;2022-12-29T02:31:24;13.30;;;8.57;;
62673;SDS011;62269;47.594;17.638;2022-12-29T02:34:58;10.18;;;8.43;;
62673;SDS011;62269;47.594;17.638;2022-12-29T02:38:21;11.07;;;8.07;;
62673;SDS011;62269;47.594;17.638;2022-12-29T02:39:23;11.95;;;8.50;;
62673;SDS011;62269;47.594;17.638;2022-12-29T02:43:05;10.77;;;8.38;;
62673;SDS011;62269;47.594;17.638;2022-12-29T02:46:30;10.43;;;8.90;;
62673;SDS011;62269;47.594;17.638;2022-12-29T02:47:26;11.07;;;8.38;;
62673;SDS011;62269;47.594;17.638;2022-12-29T02:48:18;10.90;;;8.73;;
62673;SDS011;62269;47.594;17.638;2022-12-29T02:50:14;12.57;;;9.55;;
62673;SDS011;62269;47.594;17.638;2022-12-29T02:51:26;12.23;;;8.98;;
62673;SDS011;62269;47.594;17.638;2022-12-29T02:52:17;11.23;;;9.00;;
62673;SDS011;62269;47.594;17.638;2022-12-29T02:53:13;11.18;;;8.85;;
62673;SDS011;62269;47.594;17.638;2022-12-29T02:54:02;10.73;;;8.65;;
62673;SDS011;62269;47.594;17.638;2022-12-29T02:55:10;14.57;;;9.63;;
62673;SDS011;62269;47.594;17.638;2022-12-29T02:55:57;13.38;;;9.85;;
62673;SDS011;62269;47.594;17.638;2022-12-29T02:56:44;12.32;;;8.95;;
62673;SDS011;62269;47.594;17.638;2022-12-29T02:57:33;11.15;;;9.30;;
62673;SDS011;62269;47.594;17.638;2022-12-29T02:58:21;10.65;;;8.43;;
62673;SDS011;62269;47.594;17.638;2022-12-29T02:59:09;11.05;;;9.18;;
62673;SDS011;62269;47.594;17.638;2022-12-29T03:00:06;14.05;;;9.50;;
62673;SDS011;62269;47.594;17.638;2022-12-29T03:01:16;11.63;;;8.95;;
62673;SDS011;62269;47.594;17.638;2022-12-29T03:03:48;11.75;;;9.82;;
62673;SDS011;62269;47.594;17.638;2022-12-29T03:04:31;11.82;;;9.55;;
62673;SDS011;62269;47.594;17.638;2022-12-29T03:08:06;11.82;;;8.95;;
62673;SDS011;62269;47.594;17.638;2022-12-29T03:11:18;11.65;;;9.07;;
62673;SDS011;62269;47.594;17.638;2022-12-29T03:13:49;14.13;;;9.70;;
62673;SDS011;62269;47.594;17.638;2022-12-29T03:15:04;12.48;;;9.70;;
62673;SDS011;62269;47.594;17.638;2022-12-29T03:19:14;13.05;;;8.95;;
62673;SDS011;62269;47.594;17.638;2022-12-29T03:20:07;12.90;;;9.27;;
62673;SDS011;62269;47.594;17.638;2022-12-29T03:20:57;12.60;;;9.23;;
62673;SDS011;62269;47.594;17.638;2022-12-29T03:22:07;12.15;;;8.90;;
62673;SDS011;62269;47.594;17.638;2022-12-29T03:23:13;12.63;;;8.88;;
62673;SDS011;62269;47.594;17.638;2022-12-29T03:24:00;11.32;;;9.27;;
62673;SDS011;62269;47.594;17.638;2022-12-29T03:24:49;14.52;;;9.48;;
62673;SDS011;62269;47.594;17.638;2022-12-29T03:25:40;11.15;;;8.82;;
62673;SDS011;62269;47.594;17.638;2022-12-29T03:26:30;12.45;;;10.30;;
62673;SDS011;62269;47.594;17.638;2022-12-29T03:27:19;12.45;;;9.70;;
62673;SDS011;62269;47.594;17.638;2022-12-29T03:28:09;12.65;;;9.35;;
62673;SDS011;62269;47.594;17.638;2022-12-29T03:28:59;11.65;;;9.48;;
62673;SDS011;62269;47.594;17.638;2022-12-29T03:29:47;14.23;;;9.32;;
62673;SDS011;62269;47.594;17.638;2022-12-29T03:30:39;12.23;;;8.93;;
62673;SDS011;62269;47.594;17.638;2022-12-29T03:31:27;12.23;;;9.63;;
62673;SDS011;62269;47.594;17.638;2022-12-29T03:32:15;11.40;;;9.38;;
62673;SDS011;62269;47.594;17.638;2022-12-29T03:33:03;11.05;;;8.85;;
62673;SDS011;62269;47.594;17.638;2022-12-29T03:33:52;13.70;;;9.85;;
62673;SDS011;62269;47.594;17.638;2022-12-29T03:34:40;10.18;;;8.82;;
62673;SDS011;62269;47.594;17.638;2022-12-29T03:35:28;13.02;;;9.90;;
62673;SDS011;62269;47.594;17.638;2022-12-29T03:36:20;14.68;;;10.27;;
62673;SDS011;62269;47.594;17.638;2022-12-29T03:37:14;13.13;;;10.52;;
62673;SDS011;62269;47.594;17.638;2022-12-29T03:38:59;13.77;;;9.77;;
62673;SDS011;62269;47.594;17.638;2022-12-29T03:39:50;15.25;;;11.43;;
62673;SDS011;62269;47.594;17.638;2022-12-29T03:40:38;14.52;;;10.38;;
62673;SDS011;62269;47.594;17.638;2022-12-29T03:41:28;12.15;;;10.38;;
62673;SDS011;62269;47.594;17.638;2022-12-29T03:42:19;12.37;;;7.78;;
62673;SDS011;62269;47.594;17.638;2022-12-29T03:43:06;14.30;;;10.00;;
62673;SDS011;62269;47.594;17.638;2022-12-29T03:43:53;14.63;;;10.45;;
62673;SDS011;62269;47.594;17.638;2022-12-29T03:44:41;13.88;;;10.20;;
62673;SDS011;62269;47.594;17.638;2022-12-29T03:45:29;15.00;;;11.68;;
62673;SDS011;62269;47.594;17.638;2022-12-29T03:46:16;13.88;;;10.10;;
62673;SDS011;62269;47.594;17.638;2022-12-29T03:47:03;14.38;;;10.50;;
62673;SDS011;62269;47.594;17.638;2022-12-29T03:47:51;13.93;;;11.00;;
62673;SDS011;62269;47.594;17.638;2022-12-29T03:48:39;13.38;;;9.85;;
62673;SDS011;62269;47.594;17.638;2022-12-29T03:49:26;14.15;;;10.70;;
62673;SDS011;62269;47.594;17.638;2022-12-29T03:50:13;14.80;;;10.07;;
62673;SDS011;62269;47.594;17.638;2022-12-29T03:51:00;13.25;;;9.90;;
62673;SDS011;62269;47.594;17.638;2022-12-29T03:51:47;14.32;;;11.35;;
62673;SDS011;62269;47.594;17.638;2022-12-29T03:52:37;17.15;;;10.57;;
62673;SDS011;62269;47.594;17.638;2022-12-29T03:53:24;13.55;;;10.63;;
62673;SDS011;62269;47.594;17.638;2022-12-29T03:54:11;12.35;;;10.15;;
62673;SDS011;62269;47.594;17.638;2022-12-29T03:54:57;14.48;;;10.68;;
62673;SDS011;62269;47.594;17.638;2022-12-29T03:55:44;14.07;;;10.10;;
62673;SDS011;62269;47.594;17.638;2022-12-29T03:56:31;13.15;;;10.32;;
62673;SDS011;62269;47.594;17.638;2022-12-29T03:57:19;13.27;;;10.38;;
62673;SDS011;62269;47.594;17.638;2022-12-29T03:58:05;12.88;;;10.00;;
62673;SDS011;62269;47.594;17.638;2022-12-29T03:58:52;12.93;;;9.90;;
62673;SDS011;62269;47.594;17.638;2022-12-29T03:59:39;12.65;;;10.63;;
62673;SDS011;62269;47.594;17.638;2022-12-29T04:00:26;12.30;;;10.65;;
62673;SDS011;62269;47.594;17.638;2022-12-29T04:01:14;13.27;;;10.80;;
62673;SDS011;62269;47.594;17.638;2022-12-29T04:02:03;13.05;;;10.23;;
62673;SDS011;62269;47.594;17.638;2022-12-29T04:02:50;14.35;;;10.80;;
62673;SDS011;62269;47.594;17.638;2022-12-29T04:03:37;14.50;;;11.00;;
62673;SDS011;62269;47.594;17.638;2022-12-29T04:04:25;12.88;;;10.75;;
62673;SDS011;62269;47.594;17.638;2022-12-29T04:05:11;12.82;;;10.43;;
62673;SDS011;62269;47.594;17.638;2022-12-29T04:05:59;16.35;;;11.65;;
62673;SDS011;62269;47.594;17.638;2022-12-29T04:06:46;15.38;;;11.30;;
62673;SDS011;62269;47.594;17.638;2022-12-29T04:07:33;14.50;;;10.88;;
62673;SDS011;62269;47.594;17.638;2022-12-29T04:08:20;13.48;;;10.98;;
62673;SDS011;62269;47.594;17.638;2022-12-29T04:09:07;15.18;;;11.55;;
62673;SDS011;62269;47.594;17.638;2022-12-29T04:09:54;14.27;;;10.88;;
62673;SDS011;62269;47.594;17.638;2022-12-29T04:10:40;16.15;;;10.68;;
62673;SDS011;62269;47.594;17.638;2022-12-29T04:11:27;15.30;;;11.30;;
62673;SDS011;62269;47.594;17.638;2022-12-29T04:12:18;14.05;;;10.95;;
62673;SDS011;62269;47.594;17.638;2022-12-29T04:13:05;12.82;;;10.65;;
62673;SDS011;62269;47.594;17.638;2022-12-29T04:13:52;13.70;;;10.88;;
62673;SDS011;62269;47.594;17.638;2022-12-29T04:14:39;14.90;;;11.15;;
62673;SDS011;62269;47.594;17.638;2022-12-29T04:15:26;13.75;;;10.73;;
62673;SDS011;62269;47.594;17.638;2022-12-29T04:16:13;14.63;;;10.63;;
62673;SDS011;62269;47.594;17.638;2022-12-29T04:17:01;15.57;;;10.80;;
62673;SDS011;62269;47.594;17.638;2022-12-29T04:17:48;13.07;;;10.68;;
62673;SDS011;62269;47.594;17.638;2022-12-29T04:18:35;12.80;;;10.25;;
62673;SDS011;62269;47.594;17.638;2022-12-29T04:19:21;13.70;;;10.65;;
62673;SDS011;62269;47.594;17.638;2022-12-29T04:20:08;12.18;;;10.45;;
62673;SDS011;62269;47.594;17.638;2022-12-29T04:21:14;13.90;;;9.73;;
62673;SDS011;62269;47.594;17.638;2022-12-29T04:22:03;11.68;;;10.02;;
62673;SDS011;62269;47.594;17.638;2022-12-29T04:22:56;12.20;;;9.70;;
62673;SDS011;62269;47.594;17.638;2022-12-29T04:23:45;12.68;;;10.48;;
62673;SDS011;62269;47.594;17.638;2022-12-29T04:24:32;12.07;;;10.45;;
62673;SDS011;62269;47.594;17.638;2022-12-29T04:25:19;14.55;;;10.77;;
62673;SDS011;62269;47.594;17.638;2022-12-29T04:26:06;16.37;;;10.02;;
62673;SDS011;62269;47.594;17.638;2022-12-29T04:26:53;17.27;;;10.18;;
62673;SDS011;62269;47.594;17.638;2022-12-29T04:27:41;12.32;;;9.68;;
62673;SDS011;62269;47.594;17.638;2022-12-29T04:28:28;14.15;;;10.65;;
62673;SDS011;62269;47.594;17.638;2022-12-29T04:29:15;13.13;;;9.93;;
62673;SDS011;62269;47.594;17.638;2022-12-29T04:30:02;14.90;;;11.15;;
62673;SDS011;62269;47.594;17.638;2022-12-29T04:30:50;14.13;;;10.93;;
62673;SDS011;62269;47.594;17.638;2022-12-29T04:31:37;13.62;;;10.00;;
62673;SDS011;62269;47.594;17.638;2022-12-29T04:32:24;14.27;;;11.05;;
62673;SDS011;62269;47.594;17.638;2022-12-29T04:33:11;12.45;;;10.18;;
62673;SDS011;62269;47.594;17.638;2022-12-29T04:33:58;14.25;;;10.45;;
62673;SDS011;62269;47.594;17.638;2022-12-29T04:34:46;13.18;;;10.35;;
62673;SDS011;62269;47.594;17.638;2022-12-29T04:35:33;14.05;;;10.43;;
62673;SDS011;62269;47.594;17.638;2022-12-29T04:36:20;15.15;;;10.82;;
62673;SDS011;62269;47.594;17.638;2022-12-29T04:37:15;13.80;;;10.50;;
62673;SDS011;62269;47.594;17.638;2022-12-29T04:38:01;13.48;;;11.10;;
62673;SDS011;62269;47.594;17.638;2022-12-29T04:38:49;12.48;;;9.48;;
62673;SDS011;62269;47.594;17.638;2022-12-29T04:39:36;13.40;;;10.43;;
62673;SDS011;62269;47.594;17.638;2022-12-29T04:40:23;12.80;;;10.05;;
62673;SDS011;62269;47.594;17.638;2022-12-29T04:41:10;15.65;;;9.48;;
62673;SDS011;62269;47.594;17.638;2022-12-29T04:41:57;15.90;;;11.10;;
62673;SDS011;62269;47.594;17.638;2022-12-29T04:42:43;10.82;;;9.57;;
62673;SDS011;62269;47.594;17.638;2022-12-29T04:43:30;13.20;;;10.27;;
62673;SDS011;62269;47.594;17.638;2022-12-29T04:44:17;13.90;;;10.68;;
62673;SDS011;62269;47.594;17.638;2022-12-29T04:45:04;14.15;;;10.18;;
62673;SDS011;62269;47.594;17.638;2022-12-29T04:45:52;13.35;;;9.82;;
62673;SDS011;62269;47.594;17.638;2022-12-29T04:46:39;15.15;;;10.90;;
62673;SDS011;62269;47.594;17.638;2022-12-29T04:47:25;15.98;;;9.90;;
62673;SDS011;62269;47.594;17.638;2022-12-29T04:48:13;12.82;;;9.90;;
62673;SDS011;62269;47.594;17.638;2022-12-29T04:49:00;13.18;;;10.38;;
62673;SDS011;62269;47.594;17.638;2022-12-29T04:50:37;12.98;;;9.25;;
62673;SDS011;62269;47.594;17.638;2022-12-29T04:51:25;13.55;;;9.23;;
62673;SDS011;62269;47.594;17.638;2022-12-29T04:52:11;13.77;;;10.50;;
62673;SDS011;62269;47.594;17.638;2022-12-29T04:52:58;14.55;;;10.15;;
62673;SDS011;62269;47.594;17.638;2022-12-29T04:53:45;12.18;;;9.52;;
62673;SDS011;62269;47.594;17.638;2022-12-29T04:54:32;11.73;;;9.05;;
62673;SDS011;62269;47.594;17.638;2022-12-29T04:55:19;12.13;;;9.38;;
62673;SDS011;62269;47.594;17.638;2022-12-29T04:56:06;11.85;;;10.50;;
62673;SDS011;62269;47.594;17.638;2022-12-29T04:56:53;14.07;;;9.90;;
62673;SDS011;62269;47.594;17.638;2022-12-29T04:57:40;12.90;;;10.30;;
62673;SDS011;62269;47.594;17.638;2022-12-29T04:58:27;12.43;;;9.20;;
62673;SDS011;62269;47.594;17.638;2022-12-29T04:59:14;11.95;;;9.65;;
62673;SDS011;62269;47.594;17.638;2022-12-29T05:00:01;11.15;;;9.10;;
62673;SDS011;62269;47.594;17.638;2022-12-29T05:00:48;11.10;;;8.85;;
62673;SDS011;62269;47.594;17.638;2022-12-29T05:01:35;10.40;;;8.70;;
62673;SDS011;62269;47.594;17.638;2022-12-29T05:02:22;10.65;;;8.40;;
62673;SDS011;62269;47.594;17.638;2022-12-29T05:03:09;11.02;;;8.98;;
62673;SDS011;62269;47.594;17.638;2022-12-29T05:03:56;10.13;;;8.77;;
62673;SDS011;62269;47.594;17.638;2022-12-29T05:04:43;12.73;;;8.65;;
62673;SDS011;62269;47.594;17.638;2022-12-29T05:05:30;11.32;;;8.57;;
62673;SDS011;62269;47.594;17.638;2022-12-29T05:06:17;11.32;;;8.50;;
62673;SDS011;62269;47.594;17.638;2022-12-29T05:07:04;13.07;;;9.07;;
62673;SDS011;62269;47.594;17.638;2022-12-29T05:07:51;11.38;;;9.05;;
62673;SDS011;62269;47.594;17.638;2022-12-29T05:08:37;11.05;;;9.05;;
62673;SDS011;62269;47.594;17.638;2022-12-29T05:09:24;11.73;;;9.20;;
62673;SDS011;62269;47.594;17.638;2022-12-29T05:10:11;11.20;;;9.05;;
62673;SDS011;62269;47.594;17.638;2022-12-29T05:10:59;12.45;;;9.10;;
62673;SDS011;62269;47.594;17.638;2022-12-29T05:11:46;12.30;;;9.43;;
62673;SDS011;62269;47.594;17.638;2022-12-29T05:12:33;14.90;;;9.50;;
62673;SDS011;62269;47.594;17.638;2022-12-29T05:13:21;10.98;;;9.40;;
62673;SDS011;62269;47.594;17.638;2022-12-29T05:14:08;11.57;;;10.05;;
62673;SDS011;62269;47.594;17.638;2022-12-29T05:14:55;11.15;;;9.40;;
62673;SDS011;62269;47.594;17.638;2022-12-29T05:15:45;12.90;;;9.18;;
62673;SDS011;62269;47.594;17.638;2022-12-29T05:16:34;12.95;;;10.25;;
62673;SDS011;62269;47.594;17.638;2022-12-29T05:17:21;11.73;;;9.73;;
62673;SDS011;62269;47.594;17.638;2022-12-29T05:18:08;13.40;;;10.70;;
62673;SDS011;62269;47.594;17.638;2022-12-29T05:18:55;13.05;;;10.68;;
62673;SDS011;62269;47.594;17.638;2022-12-29T05:19:42;14.70;;;10.85;;
62673;SDS011;62269;47.594;17.638;2022-12-29T05:20:29;15.40;;;11.65;;
62673;SDS011;62269;47.594;17.638;2022-12-29T05:21:16;11.27;;;8.88;;
62673;SDS011;62269;47.594;17.638;2022-12-29T05:22:02;12.00;;;8.82;;
62673;SDS011;62269;47.594;17.638;2022-12-29T05:22:49;16.42;;;9.10;;
62673;SDS011;62269;47.594;17.638;2022-12-29T05:23:36;12.60;;;10.35;;
62673;SDS011;62269;47.594;17.638;2022-12-29T05:24:23;16.20;;;9.93;;
62673;SDS011;62269;47.594;17.638;2022-12-29T05:25:10;10.32;;;8.00;;
62673;SDS011;62269;47.594;17.638;2022-12-29T05:25:57;10.32;;;8.60;;
62673;SDS011;62269;47.594;17.638;2022-12-29T05:26:44;12.05;;;8.35;;
62673;SDS011;62269;47.594;17.638;2022-12-29T05:27:30;12.10;;;8.02;;
62673;SDS011;62269;47.594;17.638;2022-12-29T05:28:18;12.07;;;8.27;;
62673;SDS011;62269;47.594;17.638;2022-12-29T05:29:05;11.20;;;8.82;;
62673;SDS011;62269;47.594;17.638;2022-12-29T05:29:52;10.82;;;8.57;;
62673;SDS011;62269;47.594;17.638;2022-12-29T05:30:39;10.10;;;8.18;;
62673;SDS011;62269;47.594;17.638;2022-12-29T05:31:26;9.75;;;8.02;;
62673;SDS011;62269;47.594;17.638;2022-12-29T05:32:13;9.38;;;7.72;;
62673;SDS011;62269;47.594;17.638;2022-12-29T05:33:00;11.50;;;8.57;;
62673;SDS011;62269;47.594;17.638;2022-12-29T05:33:47;14.77;;;8.07;;
62673;SDS011;62269;47.594;17.638;2022-12-29T05:34:34;13.45;;;8.57;;